sensor_id;sensor_type;location;lat;lon;timestamp;temperature;humidity
35305;DHT22;26433;48.034;-1.764;2024-02-26T00:02:58;10.20;99.90
35305;DHT22;26433;48.034;-1.764;2024-02-26T00:08:02;10.10;99.90
35305;DHT22;26433;48.034;-1.764;2024-02-26T00:13:08;10.10;99.90
35305;DHT22;26433;48.034;-1.764;2024-02-26T00:18:11;10.20;99.90
35305;DHT22;26433;48.034;-1.764;2024-02-26T00:23:15;10.30;99.90
35305;DHT22;26433;48.034;-1.764;2024-02-26T00:28:20;10.40;99.90
35305;DHT22;26433;48.034;-1.764;2024-02-26T00:33:23;10.40;99.90
35305;DHT22;26433;48.034;-1.764;2024-02-26T00:38:27;10.40;99.90
35305;DHT22;26433;48.034;-1.764;2024-02-26T00:43:32;10.40;99.90
35305;DHT22;26433;48.034;-1.764;2024-02-26T00:48:35;10.40;99.90
35305;DHT22;26433;48.034;-1.764;2024-02-26T00:53:39;10.40;99.90
35305;DHT22;26433;48.034;-1.764;2024-02-26T00:58:44;10.40;99.90
35305;DHT22;26433;48.034;-1.764;2024-02-26T01:03:48;10.40;99.90
35305;DHT22;26433;48.034;-1.764;2024-02-26T01:08:52;10.50;99.90
35305;DHT22;26433;48.034;-1.764;2024-02-26T01:13:56;10.50;99.90
35305;DHT22;26433;48.034;-1.764;2024-02-26T01:19:00;10.60;99.90
35305;DHT22;26433;48.034;-1.764;2024-02-26T01:24:04;10.60;99.90
35305;DHT22;26433;48.034;-1.764;2024-02-26T01:29:09;10.70;99.90
35305;DHT22;26433;48.034;-1.764;2024-02-26T01:34:12;10.70;99.90
35305;DHT22;26433;48.034;-1.764;2024-02-26T01:39:16;10.70;99.90
35305;DHT22;26433;48.034;-1.764;2024-02-26T01:44:22;10.60;99.90
35305;DHT22;26433;48.034;-1.764;2024-02-26T01:49:26;10.60;99.90
35305;DHT22;26433;48.034;-1.764;2024-02-26T01:54:29;10.60;99.90
35305;DHT22;26433;48.034;-1.764;2024-02-26T01:59:35;10.60;99.90
35305;DHT22;26433;48.034;-1.764;2024-02-26T02:04:38;10.60;99.90
35305;DHT22;26433;48.034;-1.764;2024-02-26T02:09:42;10.60;99.90
35305;DHT22;26433;48.034;-1.764;2024-02-26T02:14:46;10.60;99.90
35305;DHT22;26433;48.034;-1.764;2024-02-26T02:19:50;10.60;99.90
35305;DHT22;26433;48.034;-1.764;2024-02-26T02:24:55;10.50;99.90
35305;DHT22;26433;48.034;-1.764;2024-02-26T02:29:58;10.50;99.90
35305;DHT22;26433;48.034;-1.764;2024-02-26T02:35:02;10.50;99.90
35305;DHT22;26433;48.034;-1.764;2024-02-26T02:40:08;10.50;99.90
35305;DHT22;26433;48.034;-1.764;2024-02-26T02:45:11;10.60;99.90
35305;DHT22;26433;48.034;-1.764;2024-02-26T02:50:15;10.50;99.90
35305;DHT22;26433;48.034;-1.764;2024-02-26T02:55:19;10.60;99.90
35305;DHT22;26433;48.034;-1.764;2024-02-26T03:00:23;10.60;99.90
35305;DHT22;26433;48.034;-1.764;2024-02-26T03:05:26;10.60;99.90
35305;DHT22;26433;48.034;-1.764;2024-02-26T03:10:31;10.60;99.90
35305;DHT22;26433;48.034;-1.764;2024-02-26T03:15:35;10.70;99.90
35305;DHT22;26433;48.034;-1.764;2024-02-26T03:20:38;10.60;99.90
35305;DHT22;26433;48.034;-1.764;2024-02-26T03:25:44;10.70;99.90
35305;DHT22;26433;48.034;-1.764;2024-02-26T03:30:48;10.80;99.90
35305;DHT22;26433;48.034;-1.764;2024-02-26T03:35:52;10.80;99.90
35305;DHT22;26433;48.034;-1.764;2024-02-26T03:40:57;10.80;99.90
35305;DHT22;26433;48.034;-1.764;2024-02-26T03:46:00;10.80;99.90
35305;DHT22;26433;48.034;-1.764;2024-02-26T03:51:04;10.80;99.90
35305;DHT22;26433;48.034;-1.764;2024-02-26T03:56:09;10.80;99.90
35305;DHT22;26433;48.034;-1.764;2024-02-26T04:01:14;10.80;99.90
35305;DHT22;26433;48.034;-1.764;2024-02-26T04:06:17;10.80;99.90
35305;DHT22;26433;48.034;-1.764;2024-02-26T04:11:24;10.90;99.90
35305;DHT22;26433;48.034;-1.764;2024-02-26T04:16:28;10.90;99.90
35305;DHT22;26433;48.034;-1.764;2024-02-26T04:21:31;10.90;99.90
35305;DHT22;26433;48.034;-1.764;2024-02-26T04:26:36;10.90;99.90
35305;DHT22;26433;48.034;-1.764;2024-02-26T04:31:40;10.90;99.90
35305;DHT22;26433;48.034;-1.764;2024-02-26T04:36:44;10.80;99.90
35305;DHT22;26433;48.034;-1.764;2024-02-26T04:41:51;10.80;99.90
35305;DHT22;26433;48.034;-1.764;2024-02-26T04:46:54;10.70;99.90
35305;DHT22;26433;48.034;-1.764;2024-02-26T04:51:58;10.80;99.90
35305;DHT22;26433;48.034;-1.764;2024-02-26T04:57:03;10.80;99.90
35305;DHT22;26433;48.034;-1.764;2024-02-26T05:02:06;10.70;99.90
35305;DHT22;26433;48.034;-1.764;2024-02-26T05:07:10;10.70;99.90
35305;DHT22;26433;48.034;-1.764;2024-02-26T05:12:16;10.60;99.90
35305;DHT22;26433;48.034;-1.764;2024-02-26T05:17:19;10.60;99.90
35305;DHT22;26433;48.034;-1.764;2024-02-26T05:22:25;10.50;99.90
35305;DHT22;26433;48.034;-1.764;2024-02-26T05:27:30;10.60;99.90
35305;DHT22;26433;48.034;-1.764;2024-02-26T05:32:33;10.60;99.90
35305;DHT22;26433;48.034;-1.764;2024-02-26T05:37:37;10.50;99.90
35305;DHT22;26433;48.034;-1.764;2024-02-26T05:42:42;10.50;99.90
35305;DHT22;26433;48.034;-1.764;2024-02-26T05:47:47;10.50;99.90
35305;DHT22;26433;48.034;-1.764;2024-02-26T05:52:52;10.50;99.90
35305;DHT22;26433;48.034;-1.764;2024-02-26T05:57:57;10.40;99.90
35305;DHT22;26433;48.034;-1.764;2024-02-26T06:03:00;10.40;99.90
35305;DHT22;26433;48.034;-1.764;2024-02-26T06:08:04;10.40;99.90
35305;DHT22;26433;48.034;-1.764;2024-02-26T06:13:10;10.30;99.90
35305;DHT22;26433;48.034;-1.764;2024-02-26T06:18:13;10.30;99.90
35305;DHT22;26433;48.034;-1.764;2024-02-26T06:23:17;10.20;99.90
35305;DHT22;26433;48.034;-1.764;2024-02-26T06:28:22;10.20;99.90
35305;DHT22;26433;48.034;-1.764;2024-02-26T06:33:26;10.20;99.90
35305;DHT22;26433;48.034;-1.764;2024-02-26T06:38:29;10.20;99.90
35305;DHT22;26433;48.034;-1.764;2024-02-26T06:43:34;10.20;99.90
35305;DHT22;26433;48.034;-1.764;2024-02-26T06:48:37;10.10;99.90
35305;DHT22;26433;48.034;-1.764;2024-02-26T06:53:41;10.10;99.90
35305;DHT22;26433;48.034;-1.764;2024-02-26T06:58:46;10.00;99.90
35305;DHT22;26433;48.034;-1.764;2024-02-26T07:03:49;10.00;99.90
35305;DHT22;26433;48.034;-1.764;2024-02-26T07:08:53;10.00;99.90
35305;DHT22;26433;48.034;-1.764;2024-02-26T07:13:58;10.00;99.90
35305;DHT22;26433;48.034;-1.764;2024-02-26T07:19:03;9.90;99.90
35305;DHT22;26433;48.034;-1.764;2024-02-26T07:24:06;10.00;99.90
35305;DHT22;26433;48.034;-1.764;2024-02-26T07:29:11;10.00;99.90
35305;DHT22;26433;48.034;-1.764;2024-02-26T07:34:15;9.80;99.90
35305;DHT22;26433;48.034;-1.764;2024-02-26T07:39:18;9.80;99.90
35305;DHT22;26433;48.034;-1.764;2024-02-26T07:44:23;9.80;99.90
35305;DHT22;26433;48.034;-1.764;2024-02-26T07:49:27;9.80;99.90
35305;DHT22;26433;48.034;-1.764;2024-02-26T07:54:31;9.70;99.90
35305;DHT22;26433;48.034;-1.764;2024-02-26T07:59:36;9.70;99.90
35305;DHT22;26433;48.034;-1.764;2024-02-26T08:04:39;9.70;99.90
35305;DHT22;26433;48.034;-1.764;2024-02-26T08:09:43;9.70;99.90
35305;DHT22;26433;48.034;-1.764;2024-02-26T08:14:48;9.60;99.90
35305;DHT22;26433;48.034;-1.764;2024-02-26T08:19:51;9.60;99.90
35305;DHT22;26433;48.034;-1.764;2024-02-26T08:24:54;9.60;99.90
35305;DHT22;26433;48.034;-1.764;2024-02-26T08:29:59;9.60;99.90
35305;DHT22;26433;48.034;-1.764;2024-02-26T08:35:04;9.50;99.90
35305;DHT22;26433;48.034;-1.764;2024-02-26T08:40:07;9.50;99.90
35305;DHT22;26433;48.034;-1.764;2024-02-26T08:45:14;9.50;99.90
35305;DHT22;26433;48.034;-1.764;2024-02-26T08:50:18;9.50;99.90
35305;DHT22;26433;48.034;-1.764;2024-02-26T08:55:21;9.50;99.90
35305;DHT22;26433;48.034;-1.764;2024-02-26T09:00:26;9.50;99.90
35305;DHT22;26433;48.034;-1.764;2024-02-26T09:05:29;9.40;99.90
35305;DHT22;26433;48.034;-1.764;2024-02-26T09:10:33;9.50;99.90
35305;DHT22;26433;48.034;-1.764;2024-02-26T09:15:38;9.40;99.90
35305;DHT22;26433;48.034;-1.764;2024-02-26T09:20:41;9.40;99.90
35305;DHT22;26433;48.034;-1.764;2024-02-26T09:25:45;9.40;99.90
35305;DHT22;26433;48.034;-1.764;2024-02-26T09:30:49;9.40;99.90
35305;DHT22;26433;48.034;-1.764;2024-02-26T09:35:53;9.50;99.90
35305;DHT22;26433;48.034;-1.764;2024-02-26T09:40:56;9.40;99.90
35305;DHT22;26433;48.034;-1.764;2024-02-26T09:46:02;9.40;99.90
35305;DHT22;26433;48.034;-1.764;2024-02-26T09:51:06;9.40;99.90
35305;DHT22;26433;48.034;-1.764;2024-02-26T09:56:11;9.40;99.90
35305;DHT22;26433;48.034;-1.764;2024-02-26T10:01:16;9.40;99.90
35305;DHT22;26433;48.034;-1.764;2024-02-26T10:06:20;9.50;99.90
35305;DHT22;26433;48.034;-1.764;2024-02-26T10:11:24;9.50;99.90
35305;DHT22;26433;48.034;-1.764;2024-02-26T10:16:29;9.50;99.90
35305;DHT22;26433;48.034;-1.764;2024-02-26T10:21:33;9.70;99.90
35305;DHT22;26433;48.034;-1.764;2024-02-26T10:26:37;9.70;99.90
35305;DHT22;26433;48.034;-1.764;2024-02-26T10:31:43;9.80;99.90
35305;DHT22;26433;48.034;-1.764;2024-02-26T10:36:46;9.90;99.90
35305;DHT22;26433;48.034;-1.764;2024-02-26T10:41:55;9.90;99.90
35305;DHT22;26433;48.034;-1.764;2024-02-26T10:47:00;10.00;99.90
35305;DHT22;26433;48.034;-1.764;2024-02-26T10:52:04;10.00;99.90
35305;DHT22;26433;48.034;-1.764;2024-02-26T11:02:14;10.00;99.90
35305;DHT22;26433;48.034;-1.764;2024-02-26T11:12:21;9.90;99.90
35305;DHT22;26433;48.034;-1.764;2024-02-26T11:17:28;9.80;99.90
35305;DHT22;26433;48.034;-1.764;2024-02-26T11:22:33;9.90;99.90
35305;DHT22;26433;48.034;-1.764;2024-02-26T11:27:37;9.90;99.90
35305;DHT22;26433;48.034;-1.764;2024-02-26T11:32:45;9.90;99.90
35305;DHT22;26433;48.034;-1.764;2024-02-26T11:37:55;9.80;99.90
35305;DHT22;26433;48.034;-1.764;2024-02-26T11:48:04;9.80;99.90
35305;DHT22;26433;48.034;-1.764;2024-02-26T11:53:19;9.90;99.90
35305;DHT22;26433;48.034;-1.764;2024-02-26T11:58:22;9.90;99.90
35305;DHT22;26433;48.034;-1.764;2024-02-26T12:03:27;9.90;99.90
35305;DHT22;26433;48.034;-1.764;2024-02-26T12:08:31;9.90;99.90
35305;DHT22;26433;48.034;-1.764;2024-02-26T12:13:37;10.00;99.90
35305;DHT22;26433;48.034;-1.764;2024-02-26T12:18:42;9.90;99.90
35305;DHT22;26433;48.034;-1.764;2024-02-26T12:23:47;9.80;99.90
35305;DHT22;26433;48.034;-1.764;2024-02-26T12:28:51;9.90;99.90
35305;DHT22;26433;48.034;-1.764;2024-02-26T12:33:55;9.80;99.90
35305;DHT22;26433;48.034;-1.764;2024-02-26T12:38:59;9.80;99.90
35305;DHT22;26433;48.034;-1.764;2024-02-26T12:44:04;9.70;99.90
35305;DHT22;26433;48.034;-1.764;2024-02-26T12:54:14;9.60;99.90
35305;DHT22;26433;48.034;-1.764;2024-02-26T12:59:18;9.60;99.90
35305;DHT22;26433;48.034;-1.764;2024-02-26T13:04:21;9.60;99.90
35305;DHT22;26433;48.034;-1.764;2024-02-26T13:09:26;9.60;99.90
35305;DHT22;26433;48.034;-1.764;2024-02-26T13:14:29;9.60;99.90
35305;DHT22;26433;48.034;-1.764;2024-02-26T13:19:33;9.60;99.90
35305;DHT22;26433;48.034;-1.764;2024-02-26T13:24:38;9.50;99.90
35305;DHT22;26433;48.034;-1.764;2024-02-26T13:34:46;9.50;99.90
35305;DHT22;26433;48.034;-1.764;2024-02-26T13:39:51;9.50;99.90
35305;DHT22;26433;48.034;-1.764;2024-02-26T13:44:54;9.50;99.90
35305;DHT22;26433;48.034;-1.764;2024-02-26T13:49:58;9.50;99.90
35305;DHT22;26433;48.034;-1.764;2024-02-26T13:55:04;9.40;99.90
35305;DHT22;26433;48.034;-1.764;2024-02-26T14:00:09;9.50;99.90
35305;DHT22;26433;48.034;-1.764;2024-02-26T14:05:15;9.60;99.90
35305;DHT22;26433;48.034;-1.764;2024-02-26T14:10:20;9.60;99.90
35305;DHT22;26433;48.034;-1.764;2024-02-26T14:20:27;9.70;99.90
35305;DHT22;26433;48.034;-1.764;2024-02-26T14:25:32;9.70;99.90
35305;DHT22;26433;48.034;-1.764;2024-02-26T14:30:35;9.70;99.90
35305;DHT22;26433;48.034;-1.764;2024-02-26T14:40:44;9.70;99.90
35305;DHT22;26433;48.034;-1.764;2024-02-26T14:45:48;9.80;99.90
35305;DHT22;26433;48.034;-1.764;2024-02-26T14:50:51;9.80;99.90
35305;DHT22;26433;48.034;-1.764;2024-02-26T14:55:56;9.80;99.90
35305;DHT22;26433;48.034;-1.764;2024-02-26T15:00:59;9.80;99.90
35305;DHT22;26433;48.034;-1.764;2024-02-26T15:06:03;9.80;99.90
35305;DHT22;26433;48.034;-1.764;2024-02-26T15:11:08;9.90;99.90
35305;DHT22;26433;48.034;-1.764;2024-02-26T15:16:16;9.80;99.90
35305;DHT22;26433;48.034;-1.764;2024-02-26T15:21:20;9.80;99.90
35305;DHT22;26433;48.034;-1.764;2024-02-26T15:26:24;9.70;99.90
35305;DHT22;26433;48.034;-1.764;2024-02-26T15:31:28;9.80;99.90
35305;DHT22;26433;48.034;-1.764;2024-02-26T15:36:33;9.80;99.90
35305;DHT22;26433;48.034;-1.764;2024-02-26T15:41:38;9.70;99.90
35305;DHT22;26433;48.034;-1.764;2024-02-26T15:46:42;9.70;99.90
35305;DHT22;26433;48.034;-1.764;2024-02-26T15:51:46;9.70;99.90
35305;DHT22;26433;48.034;-1.764;2024-02-26T15:56:50;9.70;99.90
35305;DHT22;26433;48.034;-1.764;2024-02-26T16:01:54;9.70;99.90
35305;DHT22;26433;48.034;-1.764;2024-02-26T16:06:58;9.70;99.90
35305;DHT22;26433;48.034;-1.764;2024-02-26T16:12:05;9.70;99.90
35305;DHT22;26433;48.034;-1.764;2024-02-26T16:17:13;9.70;99.90
35305;DHT22;26433;48.034;-1.764;2024-02-26T16:22:18;9.60;99.90
35305;DHT22;26433;48.034;-1.764;2024-02-26T16:27:23;9.60;99.90
35305;DHT22;26433;48.034;-1.764;2024-02-26T16:32:26;9.60;99.90
35305;DHT22;26433;48.034;-1.764;2024-02-26T16:37:30;9.60;99.90
35305;DHT22;26433;48.034;-1.764;2024-02-26T16:42:35;9.60;99.90
35305;DHT22;26433;48.034;-1.764;2024-02-26T16:52:43;9.60;99.90
35305;DHT22;26433;48.034;-1.764;2024-02-26T16:57:48;9.60;99.80
35305;DHT22;26433;48.034;-1.764;2024-02-26T17:02:52;9.60;99.60
35305;DHT22;26433;48.034;-1.764;2024-02-26T17:07:57;9.60;99.30
35305;DHT22;26433;48.034;-1.764;2024-02-26T17:13:02;9.60;99.10
35305;DHT22;26433;48.034;-1.764;2024-02-26T17:18:05;9.50;98.50
35305;DHT22;26433;48.034;-1.764;2024-02-26T17:23:15;9.50;98.80
35305;DHT22;26433;48.034;-1.764;2024-02-26T17:28:20;9.50;98.70
35305;DHT22;26433;48.034;-1.764;2024-02-26T17:33:23;9.50;98.70
35305;DHT22;26433;48.034;-1.764;2024-02-26T17:38:27;9.40;98.30
35305;DHT22;26433;48.034;-1.764;2024-02-26T17:43:32;9.40;98.10
35305;DHT22;26433;48.034;-1.764;2024-02-26T17:48:35;9.40;97.60
35305;DHT22;26433;48.034;-1.764;2024-02-26T17:58:44;9.40;97.30
35305;DHT22;26433;48.034;-1.764;2024-02-26T18:03:47;9.40;97.30
35305;DHT22;26433;48.034;-1.764;2024-02-26T18:08:53;9.40;96.60
35305;DHT22;26433;48.034;-1.764;2024-02-26T18:13:58;9.30;96.70
35305;DHT22;26433;48.034;-1.764;2024-02-26T18:19:01;9.30;96.40
35305;DHT22;26433;48.034;-1.764;2024-02-26T18:24:05;9.30;96.60
35305;DHT22;26433;48.034;-1.764;2024-02-26T18:34:14;9.30;96.40
35305;DHT22;26433;48.034;-1.764;2024-02-26T18:39:18;9.30;96.50
35305;DHT22;26433;48.034;-1.764;2024-02-26T18:44:21;9.30;96.20
35305;DHT22;26433;48.034;-1.764;2024-02-26T18:49:26;9.30;96.30
35305;DHT22;26433;48.034;-1.764;2024-02-26T18:54:31;9.30;96.10
35305;DHT22;26433;48.034;-1.764;2024-02-26T19:04:46;9.40;95.30
35305;DHT22;26433;48.034;-1.764;2024-02-26T19:09:49;9.40;95.10
35305;DHT22;26433;48.034;-1.764;2024-02-26T19:14:54;9.40;94.90
35305;DHT22;26433;48.034;-1.764;2024-02-26T19:19:59;9.40;94.90
35305;DHT22;26433;48.034;-1.764;2024-02-26T19:25:03;9.50;94.70
35305;DHT22;26433;48.034;-1.764;2024-02-26T19:30:07;9.40;94.00
35305;DHT22;26433;48.034;-1.764;2024-02-26T19:35:12;9.50;94.00
35305;DHT22;26433;48.034;-1.764;2024-02-26T19:40:15;9.40;93.80
35305;DHT22;26433;48.034;-1.764;2024-02-26T19:45:19;9.50;93.30
35305;DHT22;26433;48.034;-1.764;2024-02-26T19:50:23;9.50;93.10
35305;DHT22;26433;48.034;-1.764;2024-02-26T19:55:27;9.50;92.60
35305;DHT22;26433;48.034;-1.764;2024-02-26T20:00:31;9.50;92.80
35305;DHT22;26433;48.034;-1.764;2024-02-26T20:05:36;9.50;92.30
35305;DHT22;26433;48.034;-1.764;2024-02-26T20:10:39;9.50;91.30
35305;DHT22;26433;48.034;-1.764;2024-02-26T20:15:43;9.60;91.90
35305;DHT22;26433;48.034;-1.764;2024-02-26T20:20:48;9.60;91.60
35305;DHT22;26433;48.034;-1.764;2024-02-26T20:25:51;9.60;91.50
35305;DHT22;26433;48.034;-1.764;2024-02-26T20:30:57;9.60;91.40
35305;DHT22;26433;48.034;-1.764;2024-02-26T20:36:02;9.60;91.50
35305;DHT22;26433;48.034;-1.764;2024-02-26T20:41:05;9.60;90.80
35305;DHT22;26433;48.034;-1.764;2024-02-26T20:51:14;9.60;90.50
35305;DHT22;26433;48.034;-1.764;2024-02-26T20:56:18;9.60;90.20
35305;DHT22;26433;48.034;-1.764;2024-02-26T21:01:21;9.60;89.40
35305;DHT22;26433;48.034;-1.764;2024-02-26T21:06:26;9.60;89.20
35305;DHT22;26433;48.034;-1.764;2024-02-26T21:11:30;9.50;88.90
35305;DHT22;26433;48.034;-1.764;2024-02-26T21:16:33;9.40;88.80
35305;DHT22;26433;48.034;-1.764;2024-02-26T21:21:38;9.30;88.20
35305;DHT22;26433;48.034;-1.764;2024-02-26T21:26:41;9.20;88.20
35305;DHT22;26433;48.034;-1.764;2024-02-26T21:31:45;9.20;87.90
35305;DHT22;26433;48.034;-1.764;2024-02-26T21:36:50;9.10;87.30
35305;DHT22;26433;48.034;-1.764;2024-02-26T21:41:53;9.00;87.20
35305;DHT22;26433;48.034;-1.764;2024-02-26T21:46:57;9.10;87.10
35305;DHT22;26433;48.034;-1.764;2024-02-26T21:52:02;9.00;87.00
35305;DHT22;26433;48.034;-1.764;2024-02-26T21:57:05;9.00;87.20
35305;DHT22;26433;48.034;-1.764;2024-02-26T22:02:09;8.90;87.10
35305;DHT22;26433;48.034;-1.764;2024-02-26T22:07:14;8.90;87.10
35305;DHT22;26433;48.034;-1.764;2024-02-26T22:12:17;8.90;87.20
35305;DHT22;26433;48.034;-1.764;2024-02-26T22:17:21;8.80;87.50
35305;DHT22;26433;48.034;-1.764;2024-02-26T22:22:26;8.80;87.40
35305;DHT22;26433;48.034;-1.764;2024-02-26T22:27:29;8.70;87.60
35305;DHT22;26433;48.034;-1.764;2024-02-26T22:32:33;8.70;87.60
35305;DHT22;26433;48.034;-1.764;2024-02-26T22:37:37;8.70;87.60
35305;DHT22;26433;48.034;-1.764;2024-02-26T22:42:41;8.70;87.80
35305;DHT22;26433;48.034;-1.764;2024-02-26T22:47:44;8.70;88.00
35305;DHT22;26433;48.034;-1.764;2024-02-26T22:52:49;8.60;88.30
35305;DHT22;26433;48.034;-1.764;2024-02-26T22:57:53;8.60;88.20
35305;DHT22;26433;48.034;-1.764;2024-02-26T23:02:57;8.60;88.70
35305;DHT22;26433;48.034;-1.764;2024-02-26T23:08:03;8.50;88.80
35305;DHT22;26433;48.034;-1.764;2024-02-26T23:13:09;8.60;88.90
35305;DHT22;26433;48.034;-1.764;2024-02-26T23:18:12;8.50;88.50
35305;DHT22;26433;48.034;-1.764;2024-02-26T23:23:18;8.50;88.80
35305;DHT22;26433;48.034;-1.764;2024-02-26T23:28:21;8.50;89.10
35305;DHT22;26433;48.034;-1.764;2024-02-26T23:33:25;8.50;88.90
35305;DHT22;26433;48.034;-1.764;2024-02-26T23:38:30;8.50;89.20
35305;DHT22;26433;48.034;-1.764;2024-02-26T23:43:33;8.50;89.30
35305;DHT22;26433;48.034;-1.764;2024-02-26T23:48:36;8.50;89.70
35305;DHT22;26433;48.034;-1.764;2024-02-26T23:53:41;8.40;89.90
35305;DHT22;26433;48.034;-1.764;2024-02-26T23:58:45;8.40;90.10
